Decoded Metar for LYBE (BEOGRAD in SERBIA) (IATA:BEG) | Meteo·Mobile Aviation Weather
aviador You're here:

LYBE Decoded Metar

BEOGRAD in SERBIA
Report Time2018-11-18 01:00:00
UTC Time2018-11-18 01:19:27
Flight Rules vfr VFR
Wind110° at 09 kt
W.Decomp.*RWY 12: 8.8 kt HW 2 kt LCW
W.Rank110° ranks 8
Current wind is above 110° avg. (7.4)
Visibility9999 m
Phenomena:N/A
Clouds:Scattered 020 Hf
Expected CloudBase > 1,600 ft AGL from Temp-Dew spread
CeilingNone
Temp02°C (ISA -12)
Dew Point-2°C (75% RH)
AAT-3.5°C
QNH1029 hPa
Density Alt-1,647 ft
Elevation325 ft
Report Wrong Elevation
Raw Report
METAR LYBE 180100Z 11009KT 9999 SCT020 02/M02 Q1029 NOSIG=

Extra information for LYBE:More info

Metar Taf Metar & Taf Last 4 Metars F.Rules Stats Wind Profile Meteogram Temp Stats Airport Information Weather charts Add Link Nearby VenuesMetar ALERT Operation Metar Decoded Social comments